createdAt,value
2018-09-09T00:01:19.707Z,14.42
2018-09-09T00:03:47.873Z,14.38
2018-09-09T00:06:16.019Z,14.37
2018-09-09T00:08:44.184Z,14.34
2018-09-09T00:11:12.340Z,14.27
2018-09-09T00:13:40.521Z,14.25
2018-09-09T00:16:08.681Z,14.27
2018-09-09T00:18:36.813Z,14.27
2018-09-09T00:21:04.948Z,14.35
2018-09-09T00:23:33.088Z,14.27
2018-09-09T00:26:01.288Z,14.26
2018-09-09T00:28:29.443Z,14.25
2018-09-09T00:30:57.568Z,14.30
2018-09-09T00:33:25.727Z,14.37
2018-09-09T00:35:53.851Z,14.31
2018-09-09T00:38:21.954Z,14.31
2018-09-09T00:40:50.039Z,14.21
2018-09-09T00:43:18.185Z,14.22
2018-09-09T00:45:46.311Z,14.23
2018-09-09T00:48:14.446Z,14.29
2018-09-09T00:50:48.020Z,14.30
2018-09-09T00:53:21.378Z,14.24
2018-09-09T00:55:49.496Z,14.18
2018-09-09T00:58:17.627Z,14.18
2018-09-09T01:00:51.195Z,14.16
2018-09-09T01:03:19.331Z,14.23
2018-09-09T01:05:47.458Z,14.17
2018-09-09T01:08:15.587Z,14.16
2018-09-09T01:10:43.753Z,14.26
2018-09-09T01:13:11.816Z,14.18
2018-09-09T01:15:39.912Z,14.21
2018-09-09T01:18:08.025Z,14.16
2018-09-09T01:20:36.182Z,14.14
2018-09-09T01:23:04.280Z,14.18
2018-09-09T01:25:32.429Z,14.32
2018-09-09T01:28:00.599Z,14.26
2018-09-09T01:30:28.724Z,14.24
2018-09-09T01:32:56.844Z,14.24
2018-09-09T01:35:25.047Z,14.13
2018-09-09T01:37:53.163Z,14.12
2018-09-09T01:40:21.301Z,14.11
2018-09-09T01:42:49.419Z,14.07
2018-09-09T01:45:17.557Z,14.00
2018-09-09T01:47:45.712Z,14.05
2018-09-09T01:50:13.802Z,14.00
2018-09-09T01:52:41.884Z,13.97
2018-09-09T01:55:10.011Z,13.97
2018-09-09T01:57:38.166Z,14.00
2018-09-09T02:00:06.283Z,14.00
2018-09-09T02:02:34.377Z,14.02
2018-09-09T02:05:02.508Z,13.96
2018-09-09T02:07:30.628Z,13.89
2018-09-09T02:09:58.713Z,13.92
2018-09-09T02:12:26.864Z,13.94
2018-09-09T02:14:54.971Z,13.91
2018-09-09T02:17:23.094Z,13.89
2018-09-09T02:19:51.238Z,13.83
2018-09-09T02:22:19.351Z,13.74
2018-09-09T02:24:47.467Z,13.68
2018-09-09T02:27:15.685Z,13.65
2018-09-09T02:29:44.059Z,13.62
2018-09-09T02:32:12.187Z,13.61
2018-09-09T02:34:40.330Z,13.56
2018-09-09T02:37:08.459Z,13.57
2018-09-09T02:39:36.589Z,13.51
2018-09-09T02:42:04.708Z,13.54
2018-09-09T02:44:32.858Z,13.53
2018-09-09T02:47:01.018Z,13.60
2018-09-09T02:49:29.184Z,13.57
2018-09-09T02:51:57.266Z,13.59
2018-09-09T02:54:25.372Z,13.54
2018-09-09T02:56:53.481Z,13.54
2018-09-09T02:59:21.584Z,13.59
2018-09-09T03:01:49.712Z,13.55
2018-09-09T03:04:17.811Z,13.62
2018-09-09T03:06:45.956Z,13.58
2018-09-09T03:09:14.086Z,13.58
2018-09-09T03:11:42.224Z,13.53
2018-09-09T03:14:10.282Z,13.47
2018-09-09T03:16:38.388Z,13.48
2018-09-09T03:19:06.476Z,13.46
2018-09-09T03:21:34.603Z,13.46
2018-09-09T03:24:02.695Z,13.35
2018-09-09T03:26:30.851Z,13.27
2018-09-09T03:28:58.978Z,13.27
2018-09-09T03:31:27.099Z,13.27
2018-09-09T03:33:55.199Z,13.24
2018-09-09T03:36:23.297Z,13.17
2018-09-09T03:38:51.432Z,13.18
2018-09-09T03:41:19.556Z,13.12
2018-09-09T03:43:47.665Z,13.03
2018-09-09T03:46:15.787Z,13.02
2018-09-09T03:48:43.914Z,12.98
2018-09-09T03:51:12.030Z,12.94
2018-09-09T03:53:40.157Z,12.96
2018-09-09T03:56:08.288Z,12.94
2018-09-09T03:58:36.410Z,12.96
2018-09-09T04:01:04.564Z,12.93
2018-09-09T04:03:32.718Z,12.92
2018-09-09T04:06:00.839Z,12.93
2018-09-09T04:08:28.955Z,12.88
2018-09-09T04:10:57.059Z,12.88
2018-09-09T04:13:25.168Z,12.90
2018-09-09T04:15:53.245Z,12.88
2018-09-09T04:18:21.392Z,12.87
2018-09-09T04:20:49.515Z,12.89
2018-09-09T04:23:17.615Z,12.87
2018-09-09T04:25:45.693Z,12.90
2018-09-09T04:28:13.792Z,12.88
2018-09-09T04:30:41.938Z,12.87
2018-09-09T04:33:10.071Z,12.91
2018-09-09T04:35:38.203Z,12.89
2018-09-09T04:38:06.412Z,12.88
2018-09-09T04:40:34.535Z,12.86
2018-09-09T04:43:02.663Z,12.86
2018-09-09T04:45:30.793Z,12.90
2018-09-09T04:47:58.901Z,12.91
2018-09-09T04:50:27.096Z,12.88
2018-09-09T04:52:55.188Z,12.94
2018-09-09T04:55:23.344Z,12.86
2018-09-09T04:57:51.456Z,12.90
2018-09-09T05:00:19.580Z,12.92
2018-09-09T05:02:47.793Z,12.95
2018-09-09T05:05:15.903Z,13.04
2018-09-09T05:07:44.015Z,12.99
2018-09-09T05:10:12.159Z,13.06
2018-09-09T05:12:40.270Z,13.03
2018-09-09T05:15:08.468Z,13.19
2018-09-09T05:17:36.577Z,13.26
2018-09-09T05:20:04.944Z,13.27
2018-09-09T05:22:33.044Z,13.42
2018-09-09T05:25:01.188Z,13.44
2018-09-09T05:27:29.372Z,13.50
2018-09-09T05:29:57.520Z,13.54
2018-09-09T05:32:25.616Z,13.59
2018-09-09T05:34:53.794Z,13.61
2018-09-09T05:37:21.862Z,13.68
2018-09-09T05:39:49.964Z,13.71
2018-09-09T05:42:18.148Z,13.71
2018-09-09T05:44:46.208Z,13.76
2018-09-09T05:47:14.578Z,13.67
2018-09-09T05:49:42.687Z,13.75
2018-09-09T05:52:10.824Z,13.92
2018-09-09T05:54:38.927Z,13.95
2018-09-09T05:57:07.056Z,14.09
2018-09-09T05:59:35.136Z,14.13
2018-09-09T06:02:03.220Z,14.18
2018-09-09T06:04:31.378Z,14.16
2018-09-09T06:06:59.529Z,14.15
2018-09-09T06:09:27.635Z,14.18
2018-09-09T06:11:55.759Z,14.32
2018-09-09T06:14:23.866Z,14.31
2018-09-09T06:16:51.977Z,14.38
2018-09-09T06:19:20.104Z,14.39
2018-09-09T06:21:48.260Z,14.56
2018-09-09T06:24:16.370Z,14.61
2018-09-09T06:26:44.528Z,14.72
2018-09-09T06:29:12.646Z,14.76
2018-09-09T06:31:40.761Z,14.71
2018-09-09T06:34:08.842Z,14.84
2018-09-09T06:36:36.964Z,14.88
2018-09-09T06:39:08.206Z,14.91
2018-09-09T06:41:36.249Z,14.94
2018-09-09T06:44:04.348Z,14.97
2018-09-09T06:46:32.492Z,14.99
2018-09-09T06:49:00.648Z,14.99
2018-09-09T06:51:29.437Z,15.08
2018-09-09T06:53:57.545Z,14.91
2018-09-09T06:56:26.941Z,14.95
2018-09-09T06:58:56.136Z,14.95
2018-09-09T07:01:24.292Z,15.00
2018-09-09T07:03:52.806Z,14.98
2018-09-09T07:06:20.960Z,15.14
2018-09-09T07:08:49.516Z,15.07
2018-09-09T07:11:18.327Z,15.20
2018-09-09T07:13:46.487Z,15.29
2018-09-09T07:16:14.621Z,15.16
2018-09-09T07:18:42.772Z,15.23
2018-09-09T07:21:10.861Z,15.25
2018-09-09T07:23:38.959Z,15.32
2018-09-09T07:26:07.067Z,15.33
2018-09-09T07:28:35.225Z,15.36
2018-09-09T07:31:03.291Z,15.54
2018-09-09T07:33:31.334Z,15.47
2018-09-09T07:35:59.467Z,15.68
2018-09-09T07:38:27.583Z,15.79
2018-09-09T07:40:55.679Z,15.81
2018-09-09T07:43:23.804Z,15.84
2018-09-09T07:45:51.904Z,15.87
2018-09-09T07:48:19.987Z,15.74
2018-09-09T07:50:48.181Z,15.78
2018-09-09T07:53:16.220Z,15.86
2018-09-09T07:55:44.328Z,16.00
2018-09-09T07:58:12.446Z,15.95
2018-09-09T08:00:40.596Z,15.96
2018-09-09T08:03:08.709Z,16.04
2018-09-09T08:05:36.856Z,16.17
2018-09-09T08:08:04.967Z,16.17
2018-09-09T08:10:33.051Z,16.22
2018-09-09T08:13:02.099Z,16.06
2018-09-09T08:15:30.214Z,16.30
2018-09-09T08:17:58.382Z,16.38
2018-09-09T08:20:26.529Z,16.42
2018-09-09T08:22:54.651Z,16.54
2018-09-09T08:25:22.720Z,16.52
2018-09-09T08:27:50.851Z,16.46
2018-09-09T08:30:18.953Z,16.56
2018-09-09T08:32:47.114Z,16.81
2018-09-09T08:35:15.252Z,16.89
2018-09-09T08:37:43.407Z,16.68
2018-09-09T08:40:11.539Z,16.90
2018-09-09T08:42:39.691Z,16.85
2018-09-09T08:45:07.804Z,16.95
2018-09-09T08:47:35.928Z,17.04
2018-09-09T08:50:04.048Z,17.13
2018-09-09T08:52:32.142Z,17.20
2018-09-09T08:55:00.243Z,17.07
2018-09-09T08:57:28.398Z,17.11
2018-09-09T08:59:56.536Z,17.19
2018-09-09T09:02:24.645Z,17.21
2018-09-09T09:04:52.760Z,17.30
2018-09-09T09:07:20.913Z,17.21
2018-09-09T09:09:49.042Z,17.26
2018-09-09T09:12:17.165Z,17.42
2018-09-09T09:14:45.339Z,17.52
2018-09-09T09:17:13.443Z,17.45
2018-09-09T09:19:41.575Z,17.69
2018-09-09T09:22:09.728Z,17.88
2018-09-09T09:24:37.839Z,17.94
2018-09-09T09:27:05.959Z,18.02
2018-09-09T09:29:39.527Z,17.83
2018-09-09T09:32:07.780Z,17.83
2018-09-09T09:34:36.056Z,17.96
2018-09-09T09:37:04.171Z,18.11
2018-09-09T09:39:32.299Z,18.11
2018-09-09T09:42:00.449Z,18.23
2018-09-09T09:44:28.563Z,18.04
2018-09-09T09:46:56.760Z,18.11
2018-09-09T09:49:24.840Z,18.18
2018-09-09T09:51:53.015Z,18.38
2018-09-09T09:54:21.116Z,18.45
2018-09-09T09:56:49.231Z,18.55
2018-09-09T09:59:17.511Z,18.68
2018-09-09T10:01:45.643Z,18.59
2018-09-09T10:04:13.785Z,18.59
2018-09-09T10:06:41.882Z,18.68
2018-09-09T10:09:10.102Z,18.83
2018-09-09T10:11:38.111Z,19.01
2018-09-09T10:14:06.300Z,19.19
2018-09-09T10:16:34.467Z,19.31
2018-09-09T10:19:02.597Z,19.53
2018-09-09T10:21:30.728Z,19.44
2018-09-09T10:23:58.892Z,19.46
2018-09-09T10:26:27.096Z,19.35
2018-09-09T10:28:55.195Z,19.41
2018-09-09T10:31:23.332Z,19.40
2018-09-09T10:33:51.454Z,19.38
2018-09-09T10:36:19.580Z,19.32
2018-09-09T10:38:47.708Z,19.35
2018-09-09T10:41:15.873Z,19.37
2018-09-09T10:43:43.987Z,19.35
2018-09-09T10:46:12.118Z,19.24
2018-09-09T10:48:40.187Z,19.37
2018-09-09T10:51:08.280Z,19.49
2018-09-09T10:53:36.427Z,19.42
2018-09-09T10:56:04.531Z,19.25
2018-09-09T10:58:32.915Z,19.17
2018-09-09T11:01:01.042Z,19.22
2018-09-09T11:03:29.136Z,19.29
2018-09-09T11:05:57.249Z,19.40
2018-09-09T11:08:25.327Z,19.35
2018-09-09T11:10:53.463Z,19.48
2018-09-09T11:13:21.568Z,19.69
2018-09-09T11:15:49.671Z,19.82
2018-09-09T11:18:17.843Z,19.81
2018-09-09T11:20:45.974Z,19.99
2018-09-09T11:23:14.074Z,20.05
2018-09-09T11:25:42.215Z,19.97
2018-09-09T11:28:10.402Z,20.06
2018-09-09T11:30:38.509Z,20.13
2018-09-09T11:33:07.156Z,20.07
2018-09-09T11:35:35.394Z,20.18
2018-09-09T11:38:03.512Z,20.37
2018-09-09T11:40:31.686Z,20.48
2018-09-09T11:42:59.732Z,20.46
2018-09-09T11:45:27.838Z,20.57
2018-09-09T11:47:55.919Z,20.55
2018-09-09T11:50:24.056Z,20.50
2018-09-09T11:52:52.171Z,20.46
2018-09-09T11:55:20.293Z,20.66
2018-09-09T11:57:48.452Z,20.62
2018-09-09T12:00:16.580Z,20.75
2018-09-09T12:02:44.685Z,20.91
2018-09-09T12:05:12.796Z,20.71
2018-09-09T12:07:40.911Z,20.62
2018-09-09T12:10:09.002Z,20.80
2018-09-09T12:12:37.163Z,20.94
2018-09-09T12:15:05.272Z,20.95
2018-09-09T12:17:33.421Z,21.16
2018-09-09T12:20:01.537Z,21.08
2018-09-09T12:22:29.729Z,21.00
2018-09-09T12:24:57.862Z,20.89
2018-09-09T12:27:26.040Z,21.06
2018-09-09T12:29:54.205Z,21.20
2018-09-09T12:32:22.398Z,21.28
2018-09-09T12:34:50.459Z,21.36
2018-09-09T12:37:18.596Z,21.44
2018-09-09T12:39:46.731Z,21.34
2018-09-09T12:42:14.831Z,21.25
2018-09-09T12:44:49.253Z,21.41
2018-09-09T12:47:22.667Z,21.44
2018-09-09T12:49:50.793Z,21.60
2018-09-09T12:52:18.914Z,21.66
2018-09-09T12:54:47.055Z,21.77
2018-09-09T12:57:15.159Z,21.95
2018-09-09T12:59:43.279Z,21.90
2018-09-09T13:02:11.381Z,21.97
2018-09-09T13:04:39.620Z,22.05
2018-09-09T13:07:07.816Z,22.14
2018-09-09T13:09:35.889Z,21.81
2018-09-09T13:12:04.044Z,21.78
2018-09-09T13:14:32.148Z,21.88
2018-09-09T13:17:00.287Z,21.85
2018-09-09T13:19:28.424Z,22.14
2018-09-09T13:21:56.936Z,21.61
2018-09-09T13:24:25.143Z,21.46
2018-09-09T13:26:53.259Z,21.55
2018-09-09T13:30:24.434Z,21.63
2018-09-09T13:32:52.551Z,21.81
2018-09-09T13:35:20.855Z,21.94
2018-09-09T13:37:49.007Z,21.94
2018-09-09T13:40:17.097Z,21.93
2018-09-09T13:42:45.207Z,21.90
2018-09-09T13:45:13.308Z,21.68
2018-09-09T13:47:41.398Z,21.81
2018-09-09T13:50:09.703Z,21.82
2018-09-09T13:52:37.828Z,21.98
2018-09-09T13:55:06.519Z,21.99
2018-09-09T13:57:34.627Z,21.98
2018-09-09T14:00:02.743Z,22.01
2018-09-09T14:02:30.885Z,22.07
2018-09-09T14:04:58.992Z,22.13
2018-09-09T14:07:27.080Z,22.00
2018-09-09T14:09:55.271Z,21.77
2018-09-09T14:12:23.408Z,21.84
2018-09-09T14:14:51.630Z,21.84
2018-09-09T14:17:19.719Z,22.00
2018-09-09T14:19:47.844Z,21.98
2018-09-09T14:22:15.938Z,21.97
2018-09-09T14:24:44.062Z,21.85
2018-09-09T14:27:12.173Z,22.08
2018-09-09T14:29:40.321Z,21.83
2018-09-09T14:32:08.409Z,22.06
2018-09-09T14:34:36.540Z,22.01
2018-09-09T14:37:04.692Z,22.08
2018-09-09T14:39:32.815Z,21.89
2018-09-09T14:42:00.968Z,21.74
2018-09-09T14:44:29.080Z,21.83
2018-09-09T14:46:57.206Z,22.03
2018-09-09T14:49:25.447Z,21.95
2018-09-09T14:51:53.718Z,22.02
2018-09-09T14:54:22.022Z,21.91
2018-09-09T14:56:50.141Z,22.00
2018-09-09T14:59:18.448Z,22.13
2018-09-09T15:01:46.548Z,22.13
2018-09-09T15:04:14.692Z,22.31
2018-09-09T15:06:42.858Z,22.05
2018-09-09T15:09:12.058Z,22.20
2018-09-09T15:11:40.211Z,22.33
2018-09-09T15:14:08.379Z,22.29
2018-09-09T15:16:36.638Z,22.43
2018-09-09T15:19:04.852Z,22.37
2018-09-09T15:21:33.098Z,22.22
2018-09-09T15:25:04.307Z,22.05
2018-09-09T15:27:32.496Z,22.01
2018-09-09T15:30:00.607Z,21.85
2018-09-09T15:32:28.729Z,21.89
2018-09-09T15:34:56.834Z,21.91
2018-09-09T15:37:24.923Z,21.84
2018-09-09T15:39:53.071Z,21.85
2018-09-09T15:42:21.179Z,21.90
2018-09-09T15:44:49.266Z,21.78
2018-09-09T15:47:17.470Z,21.79
2018-09-09T15:49:45.619Z,21.51
2018-09-09T15:52:13.784Z,21.67
2018-09-09T15:54:41.851Z,21.71
2018-09-09T15:57:10.040Z,21.82
2018-09-09T15:59:38.179Z,21.86
2018-09-09T16:02:06.375Z,21.91
2018-09-09T16:04:34.512Z,21.86
2018-09-09T16:07:02.610Z,21.87
2018-09-09T16:09:30.756Z,21.88
2018-09-09T16:11:59.808Z,21.82
2018-09-09T16:14:27.958Z,21.90
2018-09-09T16:16:56.097Z,21.90
2018-09-09T16:19:24.214Z,21.79
2018-09-09T16:21:52.341Z,21.85
2018-09-09T16:24:20.475Z,21.61
2018-09-09T16:26:48.552Z,21.63
2018-09-09T16:29:16.667Z,21.77
2018-09-09T16:31:44.756Z,21.85
2018-09-09T16:34:13.933Z,21.89
2018-09-09T16:36:42.347Z,21.92
2018-09-09T16:39:10.500Z,21.85
2018-09-09T16:41:39.482Z,21.80
2018-09-09T16:44:07.745Z,21.82
2018-09-09T16:46:35.901Z,21.69
2018-09-09T16:49:04.036Z,21.66
2018-09-09T16:51:32.172Z,21.68
2018-09-09T16:54:00.291Z,21.49
2018-09-09T16:56:29.006Z,21.46
2018-09-09T16:58:57.129Z,21.50
2018-09-09T17:01:25.280Z,21.56
2018-09-09T17:03:53.436Z,21.47
2018-09-09T17:06:21.585Z,21.43
2018-09-09T17:08:49.684Z,21.51
2018-09-09T17:11:17.897Z,21.52
2018-09-09T17:13:46.073Z,21.51
2018-09-09T17:16:14.212Z,21.47
2018-09-09T17:18:42.416Z,21.31
2018-09-09T17:21:10.613Z,21.25
2018-09-09T17:23:39.237Z,21.27
2018-09-09T17:26:07.411Z,21.16
2018-09-09T17:28:35.542Z,21.14
2018-09-09T17:31:03.822Z,21.11
2018-09-09T17:33:31.982Z,21.02
2018-09-09T17:36:00.134Z,20.88
2018-09-09T17:38:28.264Z,20.76
2018-09-09T17:40:56.436Z,20.68
2018-09-09T17:43:24.571Z,20.64
2018-09-09T17:45:52.777Z,20.55
2018-09-09T17:48:20.903Z,20.48
2018-09-09T17:50:49.057Z,20.44
2018-09-09T17:53:17.192Z,20.37
2018-09-09T17:55:45.409Z,20.33
2018-09-09T17:58:13.572Z,20.27
2018-09-09T18:00:41.767Z,20.19
2018-09-09T18:03:09.944Z,20.12
2018-09-09T18:05:38.183Z,20.08
2018-09-09T18:08:06.338Z,19.97
2018-09-09T18:10:34.514Z,19.99
2018-09-09T18:13:02.638Z,19.88
2018-09-09T18:15:30.712Z,19.78
2018-09-09T18:17:58.915Z,19.69
2018-09-09T18:20:27.045Z,19.63
2018-09-09T18:22:55.157Z,19.32
2018-09-09T18:25:23.232Z,19.29
2018-09-09T18:27:51.325Z,19.17
2018-09-09T18:30:19.442Z,19.16
2018-09-09T18:32:47.525Z,19.06
2018-09-09T18:35:15.674Z,19.00
2018-09-09T18:37:43.821Z,18.94
2018-09-09T18:40:11.933Z,18.83
2018-09-09T18:42:40.044Z,18.80
2018-09-09T18:45:08.725Z,18.74
2018-09-09T18:47:36.924Z,18.60
2018-09-09T18:50:05.125Z,18.54
2018-09-09T18:52:33.239Z,18.50
2018-09-09T18:55:01.429Z,18.46
2018-09-09T18:57:29.654Z,18.43
2018-09-09T18:59:57.793Z,18.36
2018-09-09T19:02:25.942Z,18.19
2018-09-09T19:04:54.088Z,18.21
2018-09-09T19:07:22.257Z,18.13
2018-09-09T19:09:50.378Z,18.04
2018-09-09T19:12:18.488Z,17.94
2018-09-09T19:14:46.862Z,17.83
2018-09-09T19:17:14.945Z,17.79
2018-09-09T19:19:43.074Z,17.65
2018-09-09T19:22:11.191Z,17.60
2018-09-09T19:24:39.344Z,17.53
2018-09-09T19:27:07.504Z,17.43
2018-09-09T19:29:35.678Z,17.36
2018-09-09T19:32:03.782Z,17.26
2018-09-09T19:35:35.117Z,17.19
2018-09-09T19:38:03.263Z,17.04
2018-09-09T19:40:31.465Z,17.04
2018-09-09T19:42:59.573Z,16.96
2018-09-09T19:45:27.696Z,16.83
2018-09-09T19:47:55.845Z,16.74
2018-09-09T19:50:23.959Z,16.71
2018-09-09T19:52:52.048Z,16.73
2018-09-09T19:55:20.202Z,16.63
2018-09-09T19:57:48.337Z,16.61
2018-09-09T20:00:16.464Z,16.56
2018-09-09T20:02:44.616Z,16.53
2018-09-09T20:05:12.752Z,16.49
2018-09-09T20:07:40.909Z,16.43
2018-09-09T20:10:09.012Z,16.29
2018-09-09T20:12:37.131Z,16.28
2018-09-09T20:15:05.283Z,16.17
2018-09-09T20:17:33.401Z,16.13
2018-09-09T20:20:01.514Z,16.07
2018-09-09T20:22:29.647Z,16.03
2018-09-09T20:24:57.773Z,15.94
2018-09-09T20:27:25.842Z,15.92
2018-09-09T20:29:53.899Z,15.87
2018-09-09T20:32:21.968Z,15.86
2018-09-09T20:34:50.127Z,15.82
2018-09-09T20:37:18.351Z,15.81
2018-09-09T20:39:46.499Z,15.81
2018-09-09T20:42:14.619Z,15.78
2018-09-09T20:44:42.746Z,15.75
2018-09-09T20:47:10.866Z,15.72
2018-09-09T20:49:39.017Z,15.72
2018-09-09T20:52:07.272Z,15.72
2018-09-09T20:54:35.400Z,15.71
2018-09-09T20:57:03.515Z,15.76
2018-09-09T20:59:31.628Z,15.80
2018-09-09T21:01:59.722Z,15.78
2018-09-09T21:04:27.819Z,15.77
2018-09-09T21:06:55.884Z,15.82
2018-09-09T21:09:24.051Z,15.90
2018-09-09T21:11:52.084Z,15.87
2018-09-09T21:14:20.223Z,15.91
2018-09-09T21:16:48.387Z,15.90
2018-09-09T21:19:16.537Z,15.91
2018-09-09T21:21:44.627Z,16.00
2018-09-09T21:24:12.781Z,16.06
2018-09-09T21:26:40.916Z,16.09
2018-09-09T21:29:09.023Z,16.01
2018-09-09T21:31:37.131Z,16.11
2018-09-09T21:34:05.331Z,16.18
2018-09-09T21:36:33.415Z,16.30
2018-09-09T21:39:01.527Z,16.33
2018-09-09T21:41:29.648Z,16.40
2018-09-09T21:43:57.774Z,16.38
2018-09-09T21:46:25.871Z,16.40
2018-09-09T21:48:53.989Z,16.50
2018-09-09T21:51:22.113Z,16.50
2018-09-09T21:53:50.286Z,16.50
2018-09-09T21:56:18.382Z,16.45
2018-09-09T21:58:46.491Z,16.46
2018-09-09T22:01:20.034Z,16.51
2018-09-09T22:03:48.151Z,16.61
2018-09-09T22:06:16.244Z,16.47
2018-09-09T22:08:44.359Z,16.51
2018-09-09T22:11:12.476Z,16.47
2018-09-09T22:13:40.587Z,16.53
2018-09-09T22:16:08.734Z,16.58
2018-09-09T22:18:36.841Z,16.48
2018-09-09T22:21:04.947Z,16.39
2018-09-09T22:23:33.067Z,16.31
2018-09-09T22:26:01.164Z,16.24
2018-09-09T22:28:29.321Z,16.36
2018-09-09T22:30:57.444Z,16.44
2018-09-09T22:33:25.599Z,16.44
2018-09-09T22:35:53.730Z,16.33
2018-09-09T22:38:21.820Z,16.29
2018-09-09T22:40:49.951Z,16.25
2018-09-09T22:43:18.044Z,16.23
2018-09-09T22:45:48.901Z,16.20
2018-09-09T22:48:17.496Z,16.29
2018-09-09T22:50:45.761Z,16.29
2018-09-09T22:53:13.931Z,16.30
2018-09-09T22:55:42.077Z,16.24
2018-09-09T22:58:10.219Z,16.14
2018-09-09T23:00:38.404Z,16.11
2018-09-09T23:03:06.934Z,16.07
2018-09-09T23:05:35.079Z,16.01
2018-09-09T23:08:03.188Z,15.96
2018-09-09T23:10:31.320Z,15.95
2018-09-09T23:12:59.417Z,16.05
2018-09-09T23:15:28.494Z,16.07
2018-09-09T23:17:56.687Z,16.10
2018-09-09T23:20:24.835Z,16.11
2018-09-09T23:22:53.430Z,16.16
2018-09-09T23:25:21.979Z,16.22
2018-09-09T23:27:50.088Z,16.22
2018-09-09T23:30:18.179Z,16.24
2018-09-09T23:32:46.288Z,16.23
2018-09-09T23:35:14.387Z,16.18
2018-09-09T23:37:42.940Z,16.24
2018-09-09T23:40:11.080Z,16.25
2018-09-09T23:42:39.191Z,16.28
2018-09-09T23:45:07.365Z,16.28
2018-09-09T23:47:35.868Z,16.26
2018-09-09T23:50:04.167Z,16.31
2018-09-09T23:52:32.279Z,16.30
2018-09-09T23:55:00.395Z,16.33
2018-09-09T23:57:28.529Z,16.33
2018-09-09T23:59:56.671Z,16.29
